Evnia — 5BJG3 — position and weather

sailwx.info

Track history (hours):
 
Tides and Currents Weather Stations Pressure Air Temp Water Temp Dewpoint Dewpoint Depression Visibility Wind Speed Wind Dir Waves Ship Positions

Evnia

Last reported at 2014-Jul-22 00:22 UTC. Time now 2014-Jul-22 11:22 UTC.
Position S 28°48' E 032°03'.

Length 190 m; draft 8 m.

Type: Cargo ship. MMSI: 209279000.

Date/timePositionNaut miles runAvg speedWind from/ knotsBaromVisibWave heightAir tempDewpointWater temp
2014-Jul-22 00:22S 28°48' E 032°03'  
2014-Jul-18 07:14S 28°47' E 032°03'0 0.0
2014-Jul-17 18:24S 28°48' E 032°03'5 5.8
2014-Jul-17 17:33S 28°50' E 032°08'6 5.6
2014-Jul-17 16:28S 28°56' E 032°07'0 0.0
2014-Jul-17 15:28S 28°56' E 032°06'0 0.1
2014-Jul-17 14:28S 28°56' E 032°06'0 0.0
2014-Jul-17 13:16S 28°56' E 032°06'0 0.1
2014-Jul-17 12:28S 28°56' E 032°06'0 0.0
2014-Jul-17 11:28S 28°56' E 032°06'0 0.0
2014-Jul-17 07:10S 28°56' E 032°06'0 0.0
2014-Jul-17 04:28S 28°56' E 032°06'0 0.0
2014-Jul-17 03:22S 28°56' E 032°06'0 0.0
2014-Jul-17 02:22S 28°56' E 032°06'0 0.0
2014-Jul-17 01:28S 28°56' E 032°06'0 0.0
2014-Jul-17 00:28S 28°56' E 032°06'0 0.0
2014-Jul-16 23:28S 28°56' E 032°06'0 0.0
2014-Jul-16 22:28S 28°56' E 032°06'0 0.0
2014-Jul-16 21:28S 28°56' E 032°06'0 0.0
2014-Jul-16 20:28S 28°56' E 032°06'0 0.0
2014-Jul-16 19:28S 28°56' E 032°06'0 0.0
2014-Jul-16 18:16S 28°56' E 032°06'0 0.0
2014-Jul-16 17:28S 28°56' E 032°06'0 0.0
2014-Jul-16 16:28S 28°56' E 032°06'0 0.0
2014-Jul-16 15:22S 28°56' E 032°06'0 0.0
2014-Jul-16 14:34S 28°56' E 032°06'0 0.0
2014-Jul-16 13:27S 28°56' E 032°06'0 0.0
2014-Jul-16 12:27S 28°56' E 032°06'0 0.0
2014-Jul-16 11:15S 28°56' E 032°06'0 0.0
2014-Jul-16 10:21S 28°56' E 032°06'0 0.0
2014-Jul-16 09:33S 28°56' E 032°06'0 0.0
2014-Jul-16 08:33S 28°56' E 032°06'0 0.0
2014-Jul-16 06:27S 28°56' E 032°06'0 0.0
2014-Jul-16 05:15S 28°56' E 032°06'37 0.9
2014-Jul-14 10:33S 29°29' E 031°47'1212.0
2014-Jul-14 09:33S 29°36' E 031°36'1312.5
2014-Jul-14 08:31S 29°44' E 031°24'1212.4
2014-Jul-14 07:33S 29°49' E 031°11'9 8.9
2014-Jul-14 06:33S 29°52' E 031°02'1 1.2
2014-Jul-14 05:31S 29°53' E 031°00'0 0.0
2014-Jul-14 04:24S 29°53' E 031°00'0 0.0
2014-Jul-14 03:13S 29°53' E 031°00'0 0.0
2014-Jul-14 01:08S 29°53' E 031°00'0 0.0
2014-Jul-14 00:30S 29°53' E 031°00'0 0.0
2014-Jul-13 15:23S 29°53' E 031°00'0 0.0
2014-Jul-13 12:17S 29°53' E 031°00'0 0.0
2014-Jul-13 11:29S 29°53' E 031°00'0 0.0
2014-Jul-13 10:29S 29°53' E 031°00'0 0.0
2014-Jul-13 09:29S 29°53' E 031°00'0 0.0
2014-Jul-13 07:23S 29°53' E 031°00'0 0.0
2014-Jul-13 06:29S 29°53' E 031°00'0 0.0
2014-Jul-13 05:29S 29°53' E 031°00'0 0.0
2014-Jul-13 04:23S 29°53' E 031°00'0 0.0
2014-Jul-13 03:29S 29°53' E 031°00'0 0.0
2014-Jul-13 02:29S 29°53' E 031°00'0 0.0
2014-Jul-13 01:29S 29°53' E 031°00'0 0.0
2014-Jul-13 00:28S 29°53' E 031°00'0 0.0
2014-Jul-12 23:33S 29°53' E 031°00'0 0.0
2014-Jul-12 22:33S 29°53' E 031°00'0 0.0
2014-Jul-12 21:33S 29°53' E 031°00'0 0.0
2014-Jul-12 19:27S 29°53' E 031°00'0 0.0
2014-Jul-12 18:15S 29°53' E 031°00'0 0.0
2014-Jul-12 13:27S 29°53' E 031°00'0 0.0
2014-Jul-12 12:32S 29°53' E 031°00'0 0.0
2014-Jul-12 10:08S 29°53' E 031°00'0 0.0
2014-Jul-12 08:32S 29°53' E 031°00'0 0.0
2014-Jul-12 07:32S 29°53' E 031°00'0 0.0
2014-Jul-12 06:14S 29°53' E 031°00'0 0.0
2014-Jul-12 05:32S 29°53' E 031°00'  
Track history (hours):
 
Tides and Currents Weather Stations Pressure Air Temp Water Temp Dewpoint Dewpoint Depression Visibility Wind Speed Wind Dir Waves Ship Positions

Evnia

Last reported at 2014-Jul-22 00:22 UTC. Time now 2014-Jul-22 11:22 UTC.
Position S 28°48' E 032°03'.

Length 190 m; draft 8 m.

Type: Cargo ship. MMSI: 209279000.

Date/timePositionNaut miles runAvg speedWind from/ knotsBaromVisibWave heightAir tempDewpointWater temp
2014-Jul-22 00:22S 28°48' E 032°03'  
2014-Jul-18 07:14S 28°47' E 032°03'0 0.0
2014-Jul-17 18:24S 28°48' E 032°03'5 5.8
2014-Jul-17 17:33S 28°50' E 032°08'6 5.6
2014-Jul-17 16:28S 28°56' E 032°07'0 0.0
2014-Jul-17 15:28S 28°56' E 032°06'0 0.1
2014-Jul-17 14:28S 28°56' E 032°06'0 0.0
2014-Jul-17 13:16S 28°56' E 032°06'0 0.1
2014-Jul-17 12:28S 28°56' E 032°06'0 0.0
2014-Jul-17 11:28S 28°56' E 032°06'0 0.0
2014-Jul-17 07:10S 28°56' E 032°06'0 0.0
2014-Jul-17 04:28S 28°56' E 032°06'0 0.0
2014-Jul-17 03:22S 28°56' E 032°06'0 0.0
2014-Jul-17 02:22S 28°56' E 032°06'0 0.0
2014-Jul-17 01:28S 28°56' E 032°06'0 0.0
2014-Jul-17 00:28S 28°56' E 032°06'0 0.0
2014-Jul-16 23:28S 28°56' E 032°06'0 0.0
2014-Jul-16 22:28S 28°56' E 032°06'0 0.0
2014-Jul-16 21:28S 28°56' E 032°06'0 0.0
2014-Jul-16 20:28S 28°56' E 032°06'0 0.0
2014-Jul-16 19:28S 28°56' E 032°06'0 0.0
2014-Jul-16 18:16S 28°56' E 032°06'0 0.0
2014-Jul-16 17:28S 28°56' E 032°06'0 0.0
2014-Jul-16 16:28S 28°56' E 032°06'0 0.0
2014-Jul-16 15:22S 28°56' E 032°06'0 0.0
2014-Jul-16 14:34S 28°56' E 032°06'0 0.0
2014-Jul-16 13:27S 28°56' E 032°06'0 0.0
2014-Jul-16 12:27S 28°56' E 032°06'0 0.0
2014-Jul-16 11:15S 28°56' E 032°06'0 0.0
2014-Jul-16 10:21S 28°56' E 032°06'0 0.0
2014-Jul-16 09:33S 28°56' E 032°06'0 0.0
2014-Jul-16 08:33S 28°56' E 032°06'0 0.0
2014-Jul-16 06:27S 28°56' E 032°06'0 0.0
2014-Jul-16 05:15S 28°56' E 032°06'37 0.9
2014-Jul-14 10:33S 29°29' E 031°47'1212.0
2014-Jul-14 09:33S 29°36' E 031°36'1312.5
2014-Jul-14 08:31S 29°44' E 031°24'1212.4
2014-Jul-14 07:33S 29°49' E 031°11'9 8.9
2014-Jul-14 06:33S 29°52' E 031°02'1 1.2
2014-Jul-14 05:31S 29°53' E 031°00'0 0.0
2014-Jul-14 04:24S 29°53' E 031°00'0 0.0
2014-Jul-14 03:13S 29°53' E 031°00'0 0.0
2014-Jul-14 01:08S 29°53' E 031°00'0 0.0
2014-Jul-14 00:30S 29°53' E 031°00'0 0.0
2014-Jul-13 15:23S 29°53' E 031°00'0 0.0
2014-Jul-13 12:17S 29°53' E 031°00'0 0.0
2014-Jul-13 11:29S 29°53' E 031°00'0 0.0
2014-Jul-13 10:29S 29°53' E 031°00'0 0.0
2014-Jul-13 09:29S 29°53' E 031°00'0 0.0
2014-Jul-13 07:23S 29°53' E 031°00'0 0.0
2014-Jul-13 06:29S 29°53' E 031°00'0 0.0
2014-Jul-13 05:29S 29°53' E 031°00'0 0.0
2014-Jul-13 04:23S 29°53' E 031°00'0 0.0
2014-Jul-13 03:29S 29°53' E 031°00'0 0.0
2014-Jul-13 02:29S 29°53' E 031°00'0 0.0
2014-Jul-13 01:29S 29°53' E 031°00'0 0.0
2014-Jul-13 00:28S 29°53' E 031°00'0 0.0
2014-Jul-12 23:33S 29°53' E 031°00'0 0.0
2014-Jul-12 22:33S 29°53' E 031°00'0 0.0
2014-Jul-12 21:33S 29°53' E 031°00'0 0.0
2014-Jul-12 19:27S 29°53' E 031°00'0 0.0
2014-Jul-12 18:15S 29°53' E 031°00'0 0.0
2014-Jul-12 13:27S 29°53' E 031°00'0 0.0
2014-Jul-12 12:32S 29°53' E 031°00'0 0.0
2014-Jul-12 10:08S 29°53' E 031°00'0 0.0
2014-Jul-12 08:32S 29°53' E 031°00'0 0.0
2014-Jul-12 07:32S 29°53' E 031°00'0 0.0
2014-Jul-12 06:14S 29°53' E 031°00'0 0.0
2014-Jul-12 05:32S 29°53' E 031°00'  

Dump ship's entire track history